Time;durP1;ratioP1;P1;durP2;ratioP2;P2;SDS_P1;SDS_P2;PMS_P1;PMS_P2;Temp;Humidity;BMP_temperature;BMP_pressure;BME280_temperature;BME280_humidity;BME280_pressure;Samples;Min_cycle;Max_cycle;Signal;HPM_P1;HPM_P2
2022/12/22 03:27:19;;;;;;;66.15;30.20;;;;;;;8.59;87.48;98840.64;4174459;83;28519;-83
2022/12/22 03:33:21;;;;;;;69.77;31.48;;;;;;;8.45;88.71;98841.77;4192624;83;28546;-82
2022/12/22 03:39:22;;;;;;;69.27;31.37;;;;;;;8.50;86.83;98852.66;4145401;84;28517;-83
2022/12/22 03:51:46;;;;;;;70.12;32.73;;;;;;;8.67;84.71;98841.36;4174256;83;28544;-82
2022/12/22 03:57:48;;;;;;;72.17;33.23;;;;;;;8.65;84.84;98836.24;4177405;84;28592;-83
2022/12/22 04:03:49;;;;;;;65.00;30.90;;;;;;;8.67;84.83;98845.38;4139652;84;28725;-85
2022/12/22 04:16:10;;;;;;;67.65;30.20;;;;;;;8.59;85.58;98837.13;4199276;83;28525;-83
2022/12/22 04:22:11;;;;;;;65.83;28.57;;;;;;;8.70;85.73;98822.17;4152486;84;28571;-83
2022/12/22 04:28:13;;;;;;;56.98;26.97;;;;;;;8.74;86.19;98823.34;4158301;85;28542;-83
2022/12/22 04:34:14;;;;;;;59.67;28.02;;;;;;;8.71;86.56;98816.56;4177556;84;28486;-83
2022/12/22 04:40:15;;;;;;;57.65;26.40;;;;;;;8.88;86.34;98810.07;4163448;84;28673;-83
2022/12/22 04:46:16;;;;;;;56.73;26.02;;;;;;;8.82;86.64;98801.61;4196589;83;28511;-82
2022/12/22 04:52:17;;;;;;;55.45;25.48;;;;;;;8.90;86.49;98803.98;4170967;84;28532;-83
2022/12/22 04:58:18;;;;;;;57.45;25.05;;;;;;;8.86;86.85;98796.62;4178577;83;28554;-83
2022/12/22 05:04:20;;;;;;;57.27;26.77;;;;;;;8.59;88.01;98786.20;4174728;83;28489;-83
2022/12/22 05:10:21;;;;;;;53.08;25.95;;;;;;;8.79;88.98;98782.77;4179957;84;28522;-83
2022/12/22 05:16:22;;;;;;;53.60;25.20;;;;;;;8.81;87.22;98770.99;4173923;84;28473;-83
2022/12/22 05:22:23;;;;;;;51.23;25.35;;;;;;;8.66;88.25;98776.23;4135692;84;28539;-83
2022/12/22 05:28:24;;;;;;;53.02;25.27;;;;;;;8.70;88.75;98772.59;4151072;85;28467;-83
2022/12/22 05:34:25;;;;;;;52.00;24.25;;;;;;;8.56;89.26;98779.97;4166495;84;28490;-84
2022/12/22 05:40:26;;;;;;;50.25;24.70;;;;;;;8.66;89.40;98772.22;4175264;84;28549;-83
2022/12/22 05:46:27;;;;;;;53.17;24.40;;;;;;;8.50;89.19;98773.10;4165055;84;28538;-83
2022/12/22 05:52:28;;;;;;;50.12;23.83;;;;;;;8.40;89.94;98760.72;4188392;83;28559;-76
2022/12/22 05:58:31;;;;;;;52.48;24.23;;;;;;;8.39;91.25;98755.61;4167503;84;28565;-77
2022/12/22 06:04:32;;;;;;;54.53;25.17;;;;;;;8.21;92.31;98755.89;4192938;83;28522;-76
2022/12/22 06:10:34;;;;;;;55.43;25.10;;;;;;;8.29;91.62;98752.92;4180687;84;28628;-76
2022/12/22 06:16:35;;;;;;;61.75;28.38;;;;;;;8.27;91.59;98758.20;4164327;84;28513;-76
2022/12/22 06:22:36;;;;;;;58.33;26.80;;;;;;;8.30;91.05;98769.30;4194999;84;28570;-77
2022/12/22 06:28:37;;;;;;;54.93;26.02;;;;;;;8.47;89.85;98776.21;4175794;84;28566;-76
2022/12/22 06:34:38;;;;;;;60.40;28.57;;;;;;;8.42;89.21;98776.58;4183768;83;28538;-76
2022/12/22 06:40:39;;;;;;;56.37;27.60;;;;;;;8.49;88.82;98778.14;4202239;83;28480;-76
2022/12/22 06:46:40;;;;;;;59.40;27.37;;;;;;;8.60;87.70;98775.28;4182417;84;28579;-76
2022/12/22 06:52:41;;;;;;;59.83;29.15;;;;;;;8.34;89.51;98777.17;4179947;84;28505;-76
2022/12/22 06:58:42;;;;;;;57.93;26.95;;;;;;;8.35;90.37;98758.71;4192861;84;28593;-76
2022/12/22 07:04:44;;;;;;;56.50;25.88;;;;;;;8.48;88.61;98759.59;4205191;83;28566;-76
2022/12/22 07:10:57;;;;;;;54.38;25.62;;;;;;;8.86;88.43;98762.56;4189203;84;28577;-75
2022/12/22 07:16:58;;;;;;;52.67;25.12;;;;;;;9.06;86.71;98757.45;4168467;84;28616;-76
2022/12/22 07:22:59;;;;;;;60.35;28.10;;;;;;;8.69;86.59;98769.08;4139795;83;28586;-76
2022/12/22 07:29:01;;;;;;;61.40;28.20;;;;;;;8.86;86.30;98771.15;4191445;83;28526;-76
2022/12/22 07:35:06;;;;;;;63.63;29.50;;;;;;;8.73;88.38;98743.45;4174037;84;28578;-76
2022/12/22 07:47:28;;;;;;;65.30;30.12;;;;;;;8.85;86.80;98740.00;4179609;83;28577;-76
2022/12/22 07:53:29;;;;;;;72.50;31.55;;;;;;;8.98;88.17;98744.36;4194742;83;28500;-76
2022/12/22 07:59:31;;;;;;;65.78;31.55;;;;;;;9.30;85.81;98734.20;4175730;83;28576;-76
2022/12/22 08:05:32;;;;;;;69.20;30.80;;;;;;;9.12;87.17;98726.22;4174377;85;28483;-76
2022/12/22 08:11:33;;;;;;;64.45;31.20;;;;;;;9.06;88.20;98724.77;4198412;83;28532;-76
2022/12/22 08:17:35;;;;;;;62.45;29.42;;;;;;;8.91;89.14;98706.42;4217477;83;28547;-76
2022/12/22 08:23:36;;;;;;;64.60;30.43;;;;;;;8.83;90.72;98709.92;4181981;84;28562;-76
2022/12/22 08:29:41;;;;;;;71.30;31.80;;;;;;;8.85;89.64;98711.34;4183511;83;28546;-76
2022/12/22 08:35:42;;;;;;;66.75;31.52;;;;;;;9.07;88.98;98698.75;4174094;83;28510;-76
2022/12/22 08:41:50;;;;;;;75.08;33.78;;;;;;;9.37;87.32;98695.19;4169459;84;28520;-77
2022/12/22 08:47:51;;;;;;;70.92;34.92;;;;;;;10.01;90.05;98703.08;4178352;84;28531;-77
2022/12/22 08:53:52;;;;;;;68.22;32.88;;;;;;;10.28;87.93;98691.28;4196445;83;28510;-76
2022/12/22 08:59:53;;;;;;;68.80;32.95;;;;;;;10.48;83.55;98687.41;4189697;84;28574;-76
2022/12/22 09:06:00;;;;;;;69.62;32.93;;;;;;;10.10;83.68;98676.66;4189498;84;28497;-77
2022/12/22 09:12:01;;;;;;;63.28;30.80;;;;;;;10.18;83.10;98673.06;4168258;84;28550;-76
2022/12/22 09:18:03;;;;;;;64.27;32.23;;;;;;;10.22;84.50;98666.70;4181921;84;28535;-76
2022/12/22 09:24:06;;;;;;;65.95;32.08;;;;;;;;;;4149375;84;28540;-77
2022/12/22 09:30:08;;;;;;;67.27;32.75;;;;;;;10.43;83.63;98651.01;4158860;84;28615;-77
2022/12/22 09:36:13;;;;;;;62.03;31.93;;;;;;;10.95;82.67;98627.72;4189907;83;28607;-77
2022/12/22 09:42:20;;;;;;;60.30;31.87;;;;;;;11.10;79.53;98614.53;4199789;82;28540;-77
2022/12/22 09:48:21;;;;;;;64.22;31.45;;;;;;;11.07;80.00;98597.52;4181146;85;28573;-78
2022/12/22 09:54:23;;;;;;;67.87;31.82;;;;;;;11.58;77.96;98580.48;4149452;84;28528;-77
2022/12/22 10:00:26;;;;;;;64.82;31.15;;;;;;;11.75;76.06;98584.47;4175142;84;28532;-76
2022/12/22 10:06:52;;;;;;;66.00;31.17;;;;;;;11.37;77.17;98577.52;4173888;84;28524;-77
2022/12/22 10:12:59;;;;;;;60.45;31.12;;;;;;;11.84;76.24;98574.89;4190170;84;28534;-77
2022/12/22 10:19:08;;;;;;;66.10;31.70;;;;;;;11.80;75.49;98575.64;4165002;84;28558;-78
2022/12/22 10:25:13;;;;;;;64.37;33.18;;;;;;;11.48;76.12;98560.16;4175704;83;28605;-77
2022/12/22 12:03:36;;;;;;;62.90;31.07;;;;;;;11.11;100.00;119126.13;4136776;83;28572;-75
2022/12/22 12:10:13;;;;;;;58.08;29.07;;;;;;;11.18;80.65;98547.90;4173961;85;28522;-76
2022/12/22 12:31:05;;;;;;;66.67;31.93;;;;;;;11.18;80.65;98547.90;4153652;84;28486;-78
2022/12/22 12:37:16;;;;;;;70.15;32.75;;;;;;;11.18;80.65;98547.90;4104021;85;28577;-76
2022/12/22 12:43:18;;;;;;;68.97;32.20;;;;;;;13.98;71.67;98400.40;4105611;85;28545;-76
2022/12/22 12:49:38;;;;;;;69.47;34.30;;;;;;;14.06;70.96;98393.11;4064904;85;28490;-76
2022/12/22 12:55:49;;;;;;;69.58;33.65;;;;;;;13.93;70.74;98389.87;4185543;83;28515;-76
2022/12/22 13:01:55;;;;;;;66.37;31.82;;;;;;;13.99;71.29;98387.16;4174206;84;28529;-76
2022/12/22 13:08:14;;;;;;;66.75;34.13;;;;;;;13.97;70.59;98388.80;4181135;84;28513;-76
2022/12/22 13:14:53;;;;;;;63.15;31.75;;;;;;;13.66;71.23;98383.35;4197195;83;28599;-78
2022/12/22 13:21:21;;;;;;;68.55;32.10;;;;;;;12.86;73.55;98374.94;4179161;84;28485;-77
2022/12/22 13:27:21;;;;;;;71.10;32.77;;;;;;;12.64;76.06;98374.03;4163561;84;28582;-78
2022/12/22 13:33:26;;;;;;;68.78;30.43;;;;;;;12.62;75.34;98379.41;4173376;84;28529;-77
2022/12/22 13:39:27;;;;;;;76.07;32.83;;;;;;;12.47;74.74;98373.38;4147240;83;28611;-76
2022/12/22 13:45:32;;;;;;;66.77;31.37;;;;;;;12.54;74.80;98376.13;4177521;83;28596;-77
2022/12/22 13:51:35;;;;;;;62.10;30.35;;;;;;;12.63;74.60;98380.50;4158912;84;28541;-77
2022/12/22 13:57:38;;;;;;;71.67;30.45;;;;;;;12.55;75.08;98381.81;4159628;85;28555;-77
2022/12/22 14:03:48;;;;;;;71.37;31.30;;;;;;;12.34;75.05;98366.03;4176847;83;28541;-77
2022/12/22 14:09:50;;;;;;;73.00;30.77;;;;;;;12.07;78.15;98370.14;4166321;83;28572;-76
2022/12/22 14:16:00;;;;;;;73.15;30.85;;;;;;;12.05;79.55;98360.17;4154740;83;28528;-76
2022/12/22 14:22:10;;;;;;;56.92;27.60;;;;;;;11.70;81.04;98357.67;4187518;83;28540;-75
2022/12/22 14:28:21;;;;;;;62.50;27.60;;;;;;;10.96;84.94;98356.34;4171884;83;28587;-76
2022/12/22 14:34:26;;;;;;;62.33;28.00;;;;;;;10.74;87.00;98365.22;4167386;83;28519;-77
2022/12/22 14:40:31;;;;;;;58.78;28.45;;;;;;;10.30;90.11;98365.91;4168915;83;28552;-74
2022/12/22 14:46:32;;;;;;;58.70;27.67;;;;;;;10.00;93.06;98362.52;4179007;83;28493;-78
2022/12/22 14:52:38;;;;;;;72.20;30.37;;;;;;;10.23;93.06;98362.06;4158735;84;28582;-78
2022/12/22 14:58:44;;;;;;;70.35;32.78;;;;;;;10.26;95.08;98365.62;4178238;84;28567;-78
2022/12/22 15:04:45;;;;;;;70.50;30.93;;;;;;;10.49;91.95;98357.62;4179039;83;28576;-78
2022/12/22 15:10:46;;;;;;;71.10;30.17;;;;;;;10.77;92.41;98339.72;4180068;84;50782;-78
2022/12/22 15:16:47;;;;;;;54.88;25.10;;;;;;;10.70;90.22;98345.28;4193058;84;28498;-78
2022/12/22 15:22:49;;;;;;;34.98;17.75;;;;;;;10.96;89.22;98341.03;4184319;84;28685;-79
2022/12/22 15:28:50;;;;;;;33.48;15.88;;;;;;;11.16;91.21;98333.72;4175485;83;28546;-78
2022/12/22 15:34:52;;;;;;;27.00;12.88;;;;;;;11.35;91.30;98329.86;4166246;84;28603;-77
2022/12/22 15:40:53;;;;;;;26.23;13.62;;;;;;;11.63;91.09;98328.81;4175507;84;28505;-77
2022/12/22 15:46:55;;;;;;;30.80;14.20;;;;;;;11.86;90.75;98337.63;4206651;84;28527;-81
2022/12/22 15:52:58;;;;;;;43.10;18.25;;;;;;;11.80;90.35;98326.00;4196344;83;28530;-76
2022/12/22 15:59:00;;;;;;;34.18;16.97;;;;;;;12.15;86.24;98314.95;4207766;83;28592;-77
2022/12/22 16:05:03;;;;;;;27.15;13.65;;;;;;;11.97;87.85;98310.22;4199758;83;28532;-77
2022/12/22 16:11:06;;;;;;;23.45;12.05;;;;;;;12.28;88.03;98310.45;4205233;83;28532;-78
2022/12/22 16:17:11;;;;;;;21.17;10.15;;;;;;;12.37;84.26;98308.09;4176549;83;28600;-77
2022/12/22 16:23:21;;;;;;;19.15;9.08;;;;;;;12.51;83.64;98301.16;4164683;83;28513;-75
2022/12/22 16:29:23;;;;;;;17.57;8.08;;;;;;;12.49;84.26;98301.95;4200443;83;28594;-76
2022/12/22 16:35:27;;;;;;;12.88;6.80;;;;;;;12.49;84.26;98301.95;4186957;83;28556;-74
2022/12/22 16:41:28;;;;;;;10.00;4.92;;;;;;;12.44;83.06;98309.20;4188886;83;28489;-75
2022/12/22 16:47:34;;;;;;;9.40;4.40;;;;;;;12.40;84.19;98300.83;4173988;84;28654;-74
2022/12/22 16:53:36;;;;;;;9.18;4.62;;;;;;;12.52;82.74;98303.33;4181623;83;28512;-74
2022/12/22 16:59:37;;;;;;;10.25;4.62;;;;;;;12.62;82.43;98297.98;4186672;83;28572;-75
2022/12/22 17:05:47;;;;;;;9.93;4.37;;;;;;;12.43;83.74;98316.47;4173535;83;28497;-76
2022/12/22 17:11:48;;;;;;;7.60;3.98;;;;;;;12.26;83.44;98308.56;4197812;83;28573;-76
2022/12/22 17:17:50;;;;;;;8.60;4.20;;;;;;;12.49;82.60;98320.83;4186274;84;28556;-75
2022/12/22 17:23:52;;;;;;;8.88;4.40;;;;;;;12.48;83.34;98311.64;4186988;83;28560;-75
2022/12/22 17:29:53;;;;;;;7.62;3.60;;;;;;;12.34;84.84;98304.55;4166059;84;28531;-75
2022/12/22 17:35:55;;;;;;;7.60;3.55;;;;;;;12.23;87.07;98315.27;4169077;83;28537;-75
2022/12/22 17:41:57;;;;;;;8.48;4.00;;;;;;;12.25;85.34;98306.42;4160123;83;28557;-73
2022/12/22 17:47:58;;;;;;;9.20;4.47;;;;;;;11.68;89.02;98315.38;4153227;84;28525;-73
2022/12/22 17:53:59;;;;;;;10.82;4.25;;;;;;;11.51;91.40;98310.13;4180219;84;28592;-75
2022/12/22 18:00:01;;;;;;;8.83;4.37;;;;;;;11.51;90.89;98307.98;4170656;83;28557;-77
2022/12/22 18:06:04;;;;;;;9.18;4.50;;;;;;;11.38;91.67;98300.57;4175073;84;28525;-78
2022/12/22 18:12:15;;;;;;;10.70;4.55;;;;;;;11.76;90.08;98297.14;4178591;84;28560;-79
2022/12/22 18:18:17;;;;;;;10.20;4.72;;;;;;;12.01;89.07;98285.75;4161884;84;28804;-78
2022/12/22 18:24:20;;;;;;;10.18;4.80;;;;;;;12.24;85.36;98287.28;4174500;83;28566;-77
2022/12/22 18:30:24;;;;;;;15.90;5.72;;;;;;;12.18;84.17;98282.92;4146717;84;28531;-82
2022/12/22 18:36:30;;;;;;;10.23;4.72;;;;;;;12.30;81.84;98269.77;4135309;83;28533;-79
2022/12/22 18:42:33;;;;;;;10.23;4.67;;;;;;;12.21;81.50;98261.38;4157846;84;28613;-82
2022/12/22 18:48:34;;;;;;;8.55;4.40;;;;;;;12.17;80.58;98259.73;4147332;84;28541;-80
2022/12/22 18:54:37;;;;;;;10.25;4.62;;;;;;;12.35;79.11;98257.69;4142463;84;28475;-80
2022/12/22 19:00:38;;;;;;;9.93;4.40;;;;;;;12.38;80.13;98259.30;4121695;84;28606;-85
2022/12/22 19:06:41;;;;;;;11.15;4.78;;;;;;;12.51;80.39;98245.09;4169737;84;28543;-80
2022/12/22 19:12:49;;;;;;;9.50;4.58;;;;;;;12.37;80.30;98242.05;4151238;84;28500;-78
2022/12/22 19:18:50;;;;;;;11.50;5.05;;;;;;;12.36;79.95;98238.53;4176192;83;28565;-81
2022/12/22 19:24:56;;;;;;;13.35;5.33;;;;;;;12.29;82.89;98247.94;4159831;84;28972;-86
2022/12/22 19:30:55;;;;;;;15.35;6.00;;;;;;;12.26;83.29;98255.48;4151980;84;28505;-83
2022/12/22 19:36:58;;;;;;;12.35;5.00;;;;;;;12.26;82.18;98248.75;4160003;84;28509;-80
2022/12/22 19:42:59;;;;;;;9.83;4.53;;;;;;;12.39;81.46;98247.47;4161981;84;28495;-76
2022/12/22 19:49:00;;;;;;;9.85;4.60;;;;;;;12.36;83.43;98244.48;4165271;84;28594;-78
2022/12/22 19:55:01;;;;;;;11.93;4.80;;;;;;;12.27;81.81;98234.72;4175184;84;28540;-81
2022/12/22 20:01:03;;;;;;;11.18;4.65;;;;;;;12.09;81.17;98246.75;4164828;84;28532;-82
2022/12/22 20:07:10;;;;;;;9.65;4.30;;;;;;;12.17;83.19;98254.87;4171742;84;28570;-85
2022/12/22 20:13:21;;;;;;;10.95;4.65;;;;;;;12.11;80.58;98254.86;4146564;84;28503;-85
2022/12/22 20:19:23;;;;;;;10.40;4.95;;;;;;;11.83;83.32;98261.38;4176777;83;28490;-79
2022/12/22 20:25:27;;;;;;;10.23;4.28;;;;;;;11.74;85.75;98257.55;4182497;83;28539;-82
2022/12/22 20:31:28;;;;;;;11.15;4.67;;;;;;;11.66;83.93;98266.89;4163709;84;28599;-80
2022/12/22 20:37:29;;;;;;;13.10;5.35;;;;;;;11.80;86.60;98260.53;4125220;85;28566;-83
2022/12/22 20:43:34;;;;;;;7.65;4.15;;;;;;;11.62;86.81;98259.88;4129150;84;28545;-83
2022/12/22 20:49:36;;;;;;;10.32;4.78;;;;;;;11.84;85.69;98264.35;4124475;84;28505;-83
2022/12/22 20:55:46;;;;;;;9.53;4.78;;;;;;;11.57;86.46;98255.27;4154680;84;28509;-88
2022/12/22 21:01:50;;;;;;;9.68;4.25;;;;;;;11.54;86.03;98266.53;4083066;85;28517;-87
2022/12/22 21:07:53;;;;;;;8.95;4.33;;;;;;;11.66;86.02;98263.67;4120179;84;28570;-85
2022/12/22 21:13:57;;;;;;;8.13;3.98;;;;;;;11.76;85.75;98248.67;4061792;85;28589;-83
2022/12/22 21:19:59;;;;;;;8.90;4.22;;;;;;;11.73;83.86;98250.54;3996747;86;28573;-84
2022/12/22 21:26:00;;;;;;;8.28;4.30;;;;;;;11.49;86.82;98253.56;4144547;84;28552;-75
2022/12/22 21:32:01;;;;;;;7.85;4.22;;;;;;;11.44;92.37;98256.50;4173072;84;28641;-75
2022/12/22 21:38:02;;;;;;;8.70;4.65;;;;;;;11.10;89.39;98261.29;4184521;83;28555;-76
2022/12/22 21:44:07;;;;;;;10.38;4.80;;;;;;;10.93;89.74;98251.97;4154788;84;28523;-75
2022/12/22 21:50:23;;;;;;;10.75;4.90;;;;;;;10.94;89.37;98238.80;4109399;85;28576;-75
2022/12/22 21:56:24;;;;;;;11.38;4.33;;;;;;;10.79;89.32;98236.23;4037408;86;28607;-75
2022/12/22 22:02:25;;;;;;;9.80;4.50;;;;;;;11.00;89.61;98233.77;4023033;86;28587;-75
2022/12/22 22:08:26;;;;;;;7.60;4.05;;;;;;;10.82;90.94;98237.07;4004850;86;28576;-75
2022/12/22 22:14:27;;;;;;;7.75;4.05;;;;;;;10.79;90.52;98240.27;4026576;86;28526;-74
2022/12/22 22:20:32;;;;;;;9.43;4.35;;;;;;;10.64;93.22;98237.39;4138217;85;28577;-75
2022/12/22 22:26:34;;;;;;;10.03;4.10;;;;;;;10.64;91.90;98232.02;4133676;85;28543;-75
2022/12/22 22:32:35;;;;;;;9.25;4.53;;;;;;;11.06;89.39;98244.84;4118807;85;28508;-76
2022/12/22 22:38:37;;;;;;;11.20;4.83;;;;;;;11.15;88.45;98254.63;4139692;85;28541;-76
2022/12/22 22:44:38;;;;;;;9.85;5.35;;;;;;;11.07;87.92;98259.91;4154312;85;28544;-76
2022/12/22 22:50:39;;;;;;;12.20;5.25;;;;;;;11.33;87.82;98251.27;4160669;85;28626;-76
2022/12/22 22:56:42;;;;;;;11.60;5.35;;;;;;;11.34;89.23;98245.64;4142069;84;28554;-77
2022/12/22 23:02:45;;;;;;;12.98;5.53;;;;;;;11.54;89.82;98250.92;4125357;85;28559;-77
2022/12/22 23:08:48;;;;;;;13.58;5.60;;;;;;;11.39;86.50;98238.95;4148958;85;28529;-76
2022/12/22 23:14:49;;;;;;;11.53;5.22;;;;;;;11.72;82.55;98240.29;4167843;85;28564;-77
2022/12/22 23:20:50;;;;;;;11.95;5.50;;;;;;;11.80;85.82;98232.25;4151471;85;28497;-76
2022/12/22 23:26:52;;;;;;;11.03;5.65;;;;;;;11.77;84.73;98237.65;4128258;85;28565;-76
2022/12/22 23:32:53;;;;;;;11.60;5.05;;;;;;;11.86;83.53;98236.06;4163143;85;28531;-75
2022/12/22 23:38:56;;;;;;;8.63;4.60;;;;;;;11.79;81.02;98238.72;4172660;84;28587;-75
2022/12/22 23:45:07;;;;;;;9.05;4.55;;;;;;;11.76;82.51;98243.28;4111272;85;28560;-84
2022/12/22 23:51:10;;;;;;;8.75;4.45;;;;;;;11.76;82.51;98243.28;4135150;85;28569;-87
2022/12/22 23:57:12;;;;;;;9.93;4.92;;;;;;;12.02;81.46;98253.72;4109791;85;28564;-86
